sensor_id;sensor_type;location;lat;lon;timestamp;P1;durP1;ratioP1;P2;durP2;ratioP2
44036;SDS011;62488;-37.670;-63.532;2023-02-15T00:01:49;31.33;;;4.53;;
44036;SDS011;62488;-37.670;-63.532;2023-02-15T00:04:19;29.55;;;3.45;;
44036;SDS011;62488;-37.670;-63.532;2023-02-15T00:06:51;37.17;;;4.68;;
44036;SDS011;62488;-37.670;-63.532;2023-02-15T00:09:18;51.17;;;13.48;;
44036;SDS011;62488;-37.670;-63.532;2023-02-15T00:11:45;48.95;;;14.82;;
44036;SDS011;62488;-37.670;-63.532;2023-02-15T00:16:44;31.60;;;7.40;;
44036;SDS011;62488;-37.670;-63.532;2023-02-15T00:19:12;41.22;;;13.63;;
44036;SDS011;62488;-37.670;-63.532;2023-02-15T00:21:40;42.17;;;14.45;;
44036;SDS011;62488;-37.670;-63.532;2023-02-15T00:24:08;45.90;;;12.93;;
44036;SDS011;62488;-37.670;-63.532;2023-02-15T00:29:04;64.50;;;13.68;;
44036;SDS011;62488;-37.670;-63.532;2023-02-15T00:31:33;60.58;;;13.60;;
44036;SDS011;62488;-37.670;-63.532;2023-02-15T00:36:31;53.47;;;14.68;;
44036;SDS011;62488;-37.670;-63.532;2023-02-15T00:38:59;66.78;;;17.92;;
44036;SDS011;62488;-37.670;-63.532;2023-02-15T00:41:26;71.43;;;19.95;;
44036;SDS011;62488;-37.670;-63.532;2023-02-15T00:43:54;74.93;;;17.30;;
44036;SDS011;62488;-37.670;-63.532;2023-02-15T00:46:21;68.22;;;14.32;;
44036;SDS011;62488;-37.670;-63.532;2023-02-15T00:48:48;74.20;;;27.52;;
44036;SDS011;62488;-37.670;-63.532;2023-02-15T00:51:16;72.40;;;23.17;;
44036;SDS011;62488;-37.670;-63.532;2023-02-15T00:53:43;71.78;;;26.58;;
44036;SDS011;62488;-37.670;-63.532;2023-02-15T00:56:11;57.30;;;17.50;;
44036;SDS011;62488;-37.670;-63.532;2023-02-15T00:58:38;74.82;;;19.65;;
44036;SDS011;62488;-37.670;-63.532;2023-02-15T01:01:06;89.22;;;20.23;;
44036;SDS011;62488;-37.670;-63.532;2023-02-15T01:03:35;52.75;;;17.17;;
44036;SDS011;62488;-37.670;-63.532;2023-02-15T01:06:02;70.03;;;16.27;;
44036;SDS011;62488;-37.670;-63.532;2023-02-15T01:08:30;62.10;;;16.00;;
44036;SDS011;62488;-37.670;-63.532;2023-02-15T01:10:59;45.72;;;14.35;;
44036;SDS011;62488;-37.670;-63.532;2023-02-15T01:13:30;66.68;;;18.42;;
44036;SDS011;62488;-37.670;-63.532;2023-02-15T01:15:57;46.65;;;13.23;;
44036;SDS011;62488;-37.670;-63.532;2023-02-15T01:18:25;62.20;;;14.63;;
44036;SDS011;62488;-37.670;-63.532;2023-02-15T01:20:52;73.82;;;15.73;;
44036;SDS011;62488;-37.670;-63.532;2023-02-15T01:23:19;83.88;;;15.18;;
44036;SDS011;62488;-37.670;-63.532;2023-02-15T01:25:46;71.00;;;15.10;;
44036;SDS011;62488;-37.670;-63.532;2023-02-15T01:28:14;69.75;;;14.20;;
44036;SDS011;62488;-37.670;-63.532;2023-02-15T01:30:41;56.38;;;12.85;;
44036;SDS011;62488;-37.670;-63.532;2023-02-15T01:33:08;58.30;;;12.80;;
44036;SDS011;62488;-37.670;-63.532;2023-02-15T01:35:43;41.35;;;12.27;;
44036;SDS011;62488;-37.670;-63.532;2023-02-15T01:38:13;41.85;;;9.45;;
44036;SDS011;62488;-37.670;-63.532;2023-02-15T01:40:41;62.45;;;13.40;;
44036;SDS011;62488;-37.670;-63.532;2023-02-15T01:43:11;66.45;;;14.48;;
44036;SDS011;62488;-37.670;-63.532;2023-02-15T01:45:38;69.95;;;26.38;;
44036;SDS011;62488;-37.670;-63.532;2023-02-15T01:48:22;68.45;;;25.35;;
44036;SDS011;62488;-37.670;-63.532;2023-02-15T01:50:56;55.00;;;21.15;;
44036;SDS011;62488;-37.670;-63.532;2023-02-15T01:53:29;62.08;;;16.88;;
44036;SDS011;62488;-37.670;-63.532;2023-02-15T01:58:32;65.10;;;13.60;;
44036;SDS011;62488;-37.670;-63.532;2023-02-15T02:01:01;49.28;;;10.77;;
44036;SDS011;62488;-37.670;-63.532;2023-02-15T02:03:39;43.47;;;10.20;;
44036;SDS011;62488;-37.670;-63.532;2023-02-15T02:06:23;47.25;;;11.43;;
44036;SDS011;62488;-37.670;-63.532;2023-02-15T02:08:52;49.00;;;11.00;;
44036;SDS011;62488;-37.670;-63.532;2023-02-15T02:11:20;29.48;;;9.40;;
44036;SDS011;62488;-37.670;-63.532;2023-02-15T02:13:47;31.08;;;8.30;;
44036;SDS011;62488;-37.670;-63.532;2023-02-15T02:24:21;15.68;;;3.13;;
44036;SDS011;62488;-37.670;-63.532;2023-02-15T02:40:50;20.02;;;1.65;;
44036;SDS011;62488;-37.670;-63.532;2023-02-15T02:43:40;11.30;;;1.77;;
44036;SDS011;62488;-37.670;-63.532;2023-02-15T02:48:54;15.30;;;2.05;;
44036;SDS011;62488;-37.670;-63.532;2023-02-15T02:51:21;7.25;;;2.25;;
44036;SDS011;62488;-37.670;-63.532;2023-02-15T02:53:50;10.38;;;1.75;;
44036;SDS011;62488;-37.670;-63.532;2023-02-15T02:56:28;21.27;;;2.25;;
44036;SDS011;62488;-37.670;-63.532;2023-02-15T02:59:16;12.05;;;2.35;;
44036;SDS011;62488;-37.670;-63.532;2023-02-15T03:01:49;14.25;;;2.63;;
44036;SDS011;62488;-37.670;-63.532;2023-02-15T03:04:22;13.98;;;2.38;;
44036;SDS011;62488;-37.670;-63.532;2023-02-15T03:07:00;20.27;;;1.98;;
44036;SDS011;62488;-37.670;-63.532;2023-02-15T03:09:35;9.30;;;1.88;;
44036;SDS011;62488;-37.670;-63.532;2023-02-15T03:14:44;6.72;;;2.10;;
44036;SDS011;62488;-37.670;-63.532;2023-02-15T03:17:14;9.93;;;1.77;;
44036;SDS011;62488;-37.670;-63.532;2023-02-15T03:19:43;8.30;;;2.10;;
44036;SDS011;62488;-37.670;-63.532;2023-02-15T03:22:29;20.35;;;2.97;;
44036;SDS011;62488;-37.670;-63.532;2023-02-15T03:25:02;14.82;;;1.77;;
44036;SDS011;62488;-37.670;-63.532;2023-02-15T03:27:38;14.57;;;2.97;;
44036;SDS011;62488;-37.670;-63.532;2023-02-15T03:30:11;18.63;;;2.47;;
44036;SDS011;62488;-37.670;-63.532;2023-02-15T03:32:41;10.70;;;2.08;;
44036;SDS011;62488;-37.670;-63.532;2023-02-15T03:35:10;26.13;;;2.88;;
44036;SDS011;62488;-37.670;-63.532;2023-02-15T03:45:51;7.88;;;1.90;;
44036;SDS011;62488;-37.670;-63.532;2023-02-15T03:48:26;19.67;;;1.95;;
44036;SDS011;62488;-37.670;-63.532;2023-02-15T03:51:08;12.55;;;2.65;;
44036;SDS011;62488;-37.670;-63.532;2023-02-15T03:54:01;9.98;;;1.88;;
44036;SDS011;62488;-37.670;-63.532;2023-02-15T03:56:31;14.50;;;2.08;;
44036;SDS011;62488;-37.670;-63.532;2023-02-15T03:59:00;22.10;;;2.80;;
44036;SDS011;62488;-37.670;-63.532;2023-02-15T04:01:54;18.90;;;3.22;;
44036;SDS011;62488;-37.670;-63.532;2023-02-15T04:04:38;16.10;;;2.90;;
44036;SDS011;62488;-37.670;-63.532;2023-02-15T04:07:08;14.30;;;1.60;;
44036;SDS011;62488;-37.670;-63.532;2023-02-15T04:09:35;16.45;;;1.77;;
44036;SDS011;62488;-37.670;-63.532;2023-02-15T04:12:20;12.50;;;2.00;;
44036;SDS011;62488;-37.670;-63.532;2023-02-15T04:14:47;16.98;;;1.77;;
44036;SDS011;62488;-37.670;-63.532;2023-02-15T04:17:32;9.35;;;1.73;;
44036;SDS011;62488;-37.670;-63.532;2023-02-15T04:19:59;18.60;;;1.88;;
44036;SDS011;62488;-37.670;-63.532;2023-02-15T04:22:44;11.70;;;2.10;;
44036;SDS011;62488;-37.670;-63.532;2023-02-15T04:25:30;14.75;;;2.22;;
44036;SDS011;62488;-37.670;-63.532;2023-02-15T04:27:57;12.43;;;1.63;;
44036;SDS011;62488;-37.670;-63.532;2023-02-15T04:30:24;10.88;;;1.92;;
44036;SDS011;62488;-37.670;-63.532;2023-02-15T04:32:53;14.65;;;2.15;;
44036;SDS011;62488;-37.670;-63.532;2023-02-15T04:35:22;13.65;;;2.28;;
44036;SDS011;62488;-37.670;-63.532;2023-02-15T04:37:49;9.48;;;2.17;;
44036;SDS011;62488;-37.670;-63.532;2023-02-15T04:40:16;7.90;;;2.08;;
44036;SDS011;62488;-37.670;-63.532;2023-02-15T04:42:43;11.35;;;1.98;;
44036;SDS011;62488;-37.670;-63.532;2023-02-15T04:45:13;7.25;;;2.60;;
44036;SDS011;62488;-37.670;-63.532;2023-02-15T04:47:40;17.95;;;3.00;;
44036;SDS011;62488;-37.670;-63.532;2023-02-15T04:50:08;16.10;;;2.45;;
44036;SDS011;62488;-37.670;-63.532;2023-02-15T04:52:35;22.63;;;2.35;;
44036;SDS011;62488;-37.670;-63.532;2023-02-15T04:55:02;9.27;;;1.48;;
44036;SDS011;62488;-37.670;-63.532;2023-02-15T04:57:29;8.73;;;1.45;;
44036;SDS011;62488;-37.670;-63.532;2023-02-15T04:59:56;14.05;;;2.08;;
44036;SDS011;62488;-37.670;-63.532;2023-02-15T05:02:24;9.30;;;1.40;;
44036;SDS011;62488;-37.670;-63.532;2023-02-15T05:04:51;11.77;;;2.25;;
44036;SDS011;62488;-37.670;-63.532;2023-02-15T05:07:18;7.53;;;1.35;;
44036;SDS011;62488;-37.670;-63.532;2023-02-15T05:09:45;8.93;;;1.98;;
44036;SDS011;62488;-37.670;-63.532;2023-02-15T05:12:12;6.30;;;1.38;;
44036;SDS011;62488;-37.670;-63.532;2023-02-15T05:14:39;11.30;;;3.28;;
44036;SDS011;62488;-37.670;-63.532;2023-02-15T05:17:06;9.93;;;1.60;;
44036;SDS011;62488;-37.670;-63.532;2023-02-15T05:19:33;4.97;;;1.17;;
44036;SDS011;62488;-37.670;-63.532;2023-02-15T05:22:00;5.28;;;1.67;;
44036;SDS011;62488;-37.670;-63.532;2023-02-15T05:24:27;11.55;;;1.80;;
44036;SDS011;62488;-37.670;-63.532;2023-02-15T05:27:13;7.82;;;1.50;;
44036;SDS011;62488;-37.670;-63.532;2023-02-15T05:29:58;8.18;;;1.60;;
44036;SDS011;62488;-37.670;-63.532;2023-02-15T05:32:25;4.20;;;1.17;;
44036;SDS011;62488;-37.670;-63.532;2023-02-15T05:34:52;10.95;;;1.45;;
44036;SDS011;62488;-37.670;-63.532;2023-02-15T05:37:19;3.72;;;1.10;;
44036;SDS011;62488;-37.670;-63.532;2023-02-15T05:39:46;6.93;;;1.25;;
44036;SDS011;62488;-37.670;-63.532;2023-02-15T05:42:13;6.68;;;1.52;;
44036;SDS011;62488;-37.670;-63.532;2023-02-15T05:44:40;12.15;;;1.90;;
44036;SDS011;62488;-37.670;-63.532;2023-02-15T05:47:07;10.07;;;1.42;;
44036;SDS011;62488;-37.670;-63.532;2023-02-15T05:49:34;7.60;;;1.67;;
44036;SDS011;62488;-37.670;-63.532;2023-02-15T05:52:02;7.72;;;1.40;;
44036;SDS011;62488;-37.670;-63.532;2023-02-15T05:54:29;5.90;;;1.23;;
44036;SDS011;62488;-37.670;-63.532;2023-02-15T05:56:56;15.80;;;1.70;;
44036;SDS011;62488;-37.670;-63.532;2023-02-15T05:59:24;7.35;;;1.30;;
44036;SDS011;62488;-37.670;-63.532;2023-02-15T06:01:51;11.65;;;1.25;;
44036;SDS011;62488;-37.670;-63.532;2023-02-15T06:04:18;4.28;;;1.70;;
44036;SDS011;62488;-37.670;-63.532;2023-02-15T06:06:45;4.18;;;1.55;;
44036;SDS011;62488;-37.670;-63.532;2023-02-15T06:09:12;5.95;;;1.67;;
44036;SDS011;62488;-37.670;-63.532;2023-02-15T06:11:40;6.03;;;1.50;;
44036;SDS011;62488;-37.670;-63.532;2023-02-15T06:14:07;8.15;;;1.30;;
44036;SDS011;62488;-37.670;-63.532;2023-02-15T06:16:34;4.40;;;1.10;;
44036;SDS011;62488;-37.670;-63.532;2023-02-15T06:19:02;5.55;;;1.73;;
44036;SDS011;62488;-37.670;-63.532;2023-02-15T06:21:29;10.77;;;1.55;;
44036;SDS011;62488;-37.670;-63.532;2023-02-15T06:23:57;8.70;;;2.08;;
44036;SDS011;62488;-37.670;-63.532;2023-02-15T06:26:24;4.75;;;1.52;;
44036;SDS011;62488;-37.670;-63.532;2023-02-15T06:28:51;9.85;;;1.42;;
44036;SDS011;62488;-37.670;-63.532;2023-02-15T06:31:18;9.48;;;1.83;;
44036;SDS011;62488;-37.670;-63.532;2023-02-15T06:33:45;6.65;;;1.05;;
44036;SDS011;62488;-37.670;-63.532;2023-02-15T06:36:13;12.50;;;1.83;;
44036;SDS011;62488;-37.670;-63.532;2023-02-15T06:38:40;4.05;;;1.60;;
44036;SDS011;62488;-37.670;-63.532;2023-02-15T06:41:08;9.55;;;2.08;;
44036;SDS011;62488;-37.670;-63.532;2023-02-15T06:43:35;8.07;;;1.42;;
44036;SDS011;62488;-37.670;-63.532;2023-02-15T06:46:03;5.10;;;1.80;;
44036;SDS011;62488;-37.670;-63.532;2023-02-15T06:48:30;19.55;;;2.83;;
44036;SDS011;62488;-37.670;-63.532;2023-02-15T06:50:57;6.97;;;1.58;;
44036;SDS011;62488;-37.670;-63.532;2023-02-15T06:53:24;5.85;;;1.42;;
44036;SDS011;62488;-37.670;-63.532;2023-02-15T06:55:51;6.47;;;1.38;;
44036;SDS011;62488;-37.670;-63.532;2023-02-15T06:58:18;7.97;;;1.60;;
44036;SDS011;62488;-37.670;-63.532;2023-02-15T07:00:45;6.72;;;1.70;;
44036;SDS011;62488;-37.670;-63.532;2023-02-15T07:03:12;6.78;;;1.35;;
44036;SDS011;62488;-37.670;-63.532;2023-02-15T07:05:40;11.88;;;2.55;;
44036;SDS011;62488;-37.670;-63.532;2023-02-15T07:08:08;9.65;;;1.63;;
44036;SDS011;62488;-37.670;-63.532;2023-02-15T07:10:35;8.05;;;1.90;;
44036;SDS011;62488;-37.670;-63.532;2023-02-15T07:13:02;6.57;;;2.17;;
44036;SDS011;62488;-37.670;-63.532;2023-02-15T07:15:29;12.68;;;1.65;;
44036;SDS011;62488;-37.670;-63.532;2023-02-15T07:30:34;11.45;;;2.13;;
44036;SDS011;62488;-37.670;-63.532;2023-02-15T07:33:02;4.97;;;1.25;;
44036;SDS011;62488;-37.670;-63.532;2023-02-15T07:35:50;9.45;;;1.42;;
44036;SDS011;62488;-37.670;-63.532;2023-02-15T07:38:24;8.38;;;2.08;;
44036;SDS011;62488;-37.670;-63.532;2023-02-15T07:40:57;5.87;;;1.57;;
44036;SDS011;62488;-37.670;-63.532;2023-02-15T07:43:24;9.48;;;1.65;;
44036;SDS011;62488;-37.670;-63.532;2023-02-15T07:45:52;7.15;;;2.13;;
44036;SDS011;62488;-37.670;-63.532;2023-02-15T07:48:19;13.32;;;1.40;;
44036;SDS011;62488;-37.670;-63.532;2023-02-15T07:50:46;10.75;;;1.95;;
44036;SDS011;62488;-37.670;-63.532;2023-02-15T07:53:13;12.10;;;1.63;;
44036;SDS011;62488;-37.670;-63.532;2023-02-15T07:55:40;5.70;;;1.52;;
44036;SDS011;62488;-37.670;-63.532;2023-02-15T07:58:07;6.72;;;1.73;;
44036;SDS011;62488;-37.670;-63.532;2023-02-15T08:00:34;8.82;;;2.10;;
44036;SDS011;62488;-37.670;-63.532;2023-02-15T08:03:24;10.15;;;2.03;;
44036;SDS011;62488;-37.670;-63.532;2023-02-15T08:06:00;10.93;;;1.73;;
44036;SDS011;62488;-37.670;-63.532;2023-02-15T08:08:27;7.25;;;1.83;;
44036;SDS011;62488;-37.670;-63.532;2023-02-15T08:13:46;10.35;;;2.47;;
44036;SDS011;62488;-37.670;-63.532;2023-02-15T08:16:24;15.23;;;3.72;;
44036;SDS011;62488;-37.670;-63.532;2023-02-15T08:18:52;9.52;;;1.77;;
44036;SDS011;62488;-37.670;-63.532;2023-02-15T08:21:20;10.48;;;1.70;;
44036;SDS011;62488;-37.670;-63.532;2023-02-15T08:23:48;9.07;;;1.77;;
44036;SDS011;62488;-37.670;-63.532;2023-02-15T08:26:15;8.90;;;1.75;;
44036;SDS011;62488;-37.670;-63.532;2023-02-15T08:28:43;4.85;;;1.85;;
44036;SDS011;62488;-37.670;-63.532;2023-02-15T08:31:12;9.05;;;2.08;;
44036;SDS011;62488;-37.670;-63.532;2023-02-15T08:33:40;6.00;;;1.63;;
44036;SDS011;62488;-37.670;-63.532;2023-02-15T08:36:09;3.97;;;1.13;;
44036;SDS011;62488;-37.670;-63.532;2023-02-15T08:38:39;13.23;;;2.47;;
44036;SDS011;62488;-37.670;-63.532;2023-02-15T08:43:39;13.05;;;2.25;;
44036;SDS011;62488;-37.670;-63.532;2023-02-15T08:46:07;10.93;;;2.00;;
44036;SDS011;62488;-37.670;-63.532;2023-02-15T08:48:35;3.83;;;1.73;;
44036;SDS011;62488;-37.670;-63.532;2023-02-15T08:51:10;5.63;;;1.40;;
44036;SDS011;62488;-37.670;-63.532;2023-02-15T08:53:46;10.70;;;2.28;;
44036;SDS011;62488;-37.670;-63.532;2023-02-15T08:56:14;9.48;;;1.40;;
44036;SDS011;62488;-37.670;-63.532;2023-02-15T08:58:42;17.13;;;2.22;;
44036;SDS011;62488;-37.670;-63.532;2023-02-15T09:01:14;22.27;;;3.45;;
44036;SDS011;62488;-37.670;-63.532;2023-02-15T09:03:54;6.88;;;1.83;;
44036;SDS011;62488;-37.670;-63.532;2023-02-15T09:06:27;8.38;;;1.83;;
44036;SDS011;62488;-37.670;-63.532;2023-02-15T09:08:54;7.90;;;1.90;;
44036;SDS011;62488;-37.670;-63.532;2023-02-15T09:11:23;8.10;;;1.63;;
44036;SDS011;62488;-37.670;-63.532;2023-02-15T09:16:27;8.23;;;1.88;;
44036;SDS011;62488;-37.670;-63.532;2023-02-15T09:18:56;12.00;;;2.15;;
44036;SDS011;62488;-37.670;-63.532;2023-02-15T09:21:24;7.07;;;2.50;;
44036;SDS011;62488;-37.670;-63.532;2023-02-15T09:23:54;12.98;;;2.58;;
44036;SDS011;62488;-37.670;-63.532;2023-02-15T09:26:24;13.50;;;2.38;;
44036;SDS011;62488;-37.670;-63.532;2023-02-15T09:28:56;5.10;;;1.88;;
44036;SDS011;62488;-37.670;-63.532;2023-02-15T09:31:26;6.40;;;1.65;;
44036;SDS011;62488;-37.670;-63.532;2023-02-15T09:33:57;16.13;;;2.47;;
44036;SDS011;62488;-37.670;-63.532;2023-02-15T09:36:32;7.95;;;2.25;;
44036;SDS011;62488;-37.670;-63.532;2023-02-15T09:39:19;11.32;;;1.80;;
44036;SDS011;62488;-37.670;-63.532;2023-02-15T09:45:04;21.02;;;3.80;;
44036;SDS011;62488;-37.670;-63.532;2023-02-15T09:51:15;18.52;;;2.05;;
44036;SDS011;62488;-37.670;-63.532;2023-02-15T09:56:53;5.15;;;1.48;;
44036;SDS011;62488;-37.670;-63.532;2023-02-15T09:59:48;8.38;;;2.63;;
44036;SDS011;62488;-37.670;-63.532;2023-02-15T10:11:15;17.50;;;3.05;;
44036;SDS011;62488;-37.670;-63.532;2023-02-15T10:17:15;16.85;;;3.35;;
44036;SDS011;62488;-37.670;-63.532;2023-02-15T10:28:29;23.13;;;4.20;;
44036;SDS011;62488;-37.670;-63.532;2023-02-15T10:31:22;13.05;;;2.95;;
44036;SDS011;62488;-37.670;-63.532;2023-02-15T10:36:56;11.48;;;2.28;;
44036;SDS011;62488;-37.670;-63.532;2023-02-15T10:46:03;7.13;;;2.00;;
44036;SDS011;62488;-37.670;-63.532;2023-02-15T10:56:48;10.70;;;1.90;;
44036;SDS011;62488;-37.670;-63.532;2023-02-15T11:01:58;16.38;;;1.92;;
44036;SDS011;62488;-37.670;-63.532;2023-02-15T11:07:24;14.30;;;2.28;;
44036;SDS011;62488;-37.670;-63.532;2023-02-15T11:12:53;21.10;;;1.98;;
44036;SDS011;62488;-37.670;-63.532;2023-02-15T11:23:55;13.43;;;2.78;;
44036;SDS011;62488;-37.670;-63.532;2023-02-15T11:34:50;5.05;;;1.10;;
44036;SDS011;62488;-37.670;-63.532;2023-02-15T11:37:23;8.05;;;1.08;;
44036;SDS011;62488;-37.670;-63.532;2023-02-15T11:39:57;6.03;;;1.23;;
44036;SDS011;62488;-37.670;-63.532;2023-02-15T11:42:26;14.93;;;1.25;;
44036;SDS011;62488;-37.670;-63.532;2023-02-15T11:47:26;2.75;;;1.10;;
44036;SDS011;62488;-37.670;-63.532;2023-02-15T11:49:53;4.75;;;1.30;;
44036;SDS011;62488;-37.670;-63.532;2023-02-15T11:52:21;16.77;;;1.63;;
44036;SDS011;62488;-37.670;-63.532;2023-02-15T11:54:49;16.70;;;2.03;;
44036;SDS011;62488;-37.670;-63.532;2023-02-15T12:00:00;13.05;;;1.60;;
44036;SDS011;62488;-37.670;-63.532;2023-02-15T12:02:31;20.65;;;1.58;;
44036;SDS011;62488;-37.670;-63.532;2023-02-15T12:05:03;6.18;;;1.52;;
44036;SDS011;62488;-37.670;-63.532;2023-02-15T12:13:24;8.43;;;1.30;;
44036;SDS011;62488;-37.670;-63.532;2023-02-15T12:15:55;3.35;;;1.20;;
44036;SDS011;62488;-37.670;-63.532;2023-02-15T12:21:07;17.05;;;1.45;;
44036;SDS011;62488;-37.670;-63.532;2023-02-15T12:23:57;7.78;;;1.17;;
44036;SDS011;62488;-37.670;-63.532;2023-02-15T12:26:43;5.07;;;1.35;;
44036;SDS011;62488;-37.670;-63.532;2023-02-15T12:29:21;7.65;;;1.77;;
44036;SDS011;62488;-37.670;-63.532;2023-02-15T12:31:53;7.35;;;1.40;;
44036;SDS011;62488;-37.670;-63.532;2023-02-15T12:37:19;8.07;;;1.65;;
44036;SDS011;62488;-37.670;-63.532;2023-02-15T12:39:53;13.43;;;1.00;;
44036;SDS011;62488;-37.670;-63.532;2023-02-15T12:42:26;9.85;;;1.20;;
44036;SDS011;62488;-37.670;-63.532;2023-02-15T12:45:23;10.25;;;1.73;;
44036;SDS011;62488;-37.670;-63.532;2023-02-15T12:50:40;5.65;;;1.23;;
44036;SDS011;62488;-37.670;-63.532;2023-02-15T12:56:08;4.25;;;1.42;;
44036;SDS011;62488;-37.670;-63.532;2023-02-15T12:58:37;11.82;;;1.50;;
44036;SDS011;62488;-37.670;-63.532;2023-02-15T13:01:15;10.60;;;1.30;;
44036;SDS011;62488;-37.670;-63.532;2023-02-15T13:04:05;7.32;;;1.00;;
44036;SDS011;62488;-37.670;-63.532;2023-02-15T13:06:46;1.50;;;0.85;;
44036;SDS011;62488;-37.670;-63.532;2023-02-15T13:09:15;6.10;;;1.10;;
44036;SDS011;62488;-37.670;-63.532;2023-02-15T13:14:54;13.60;;;1.23;;
44036;SDS011;62488;-37.670;-63.532;2023-02-15T13:17:24;3.17;;;0.90;;
44036;SDS011;62488;-37.670;-63.532;2023-02-15T13:20:06;6.32;;;1.10;;
44036;SDS011;62488;-37.670;-63.532;2023-02-15T13:22:45;4.63;;;0.90;;
44036;SDS011;62488;-37.670;-63.532;2023-02-15T13:25:19;5.55;;;1.13;;
44036;SDS011;62488;-37.670;-63.532;2023-02-15T13:27:52;3.03;;;0.90;;
44036;SDS011;62488;-37.670;-63.532;2023-02-15T13:30:25;4.80;;;1.00;;
44036;SDS011;62488;-37.670;-63.532;2023-02-15T13:32:56;8.52;;;1.00;;
44036;SDS011;62488;-37.670;-63.532;2023-02-15T13:38:09;4.63;;;0.77;;
44036;SDS011;62488;-37.670;-63.532;2023-02-15T13:40:53;5.90;;;0.98;;
44036;SDS011;62488;-37.670;-63.532;2023-02-15T13:43:59;4.85;;;1.33;;
44036;SDS011;62488;-37.670;-63.532;2023-02-15T14:00:59;2.83;;;0.85;;
44036;SDS011;62488;-37.670;-63.532;2023-02-15T14:03:35;2.42;;;0.85;;
44036;SDS011;62488;-37.670;-63.532;2023-02-15T14:25:56;2.72;;;1.00;;
44036;SDS011;62488;-37.670;-63.532;2023-02-15T14:31:52;8.68;;;1.33;;
44036;SDS011;62488;-37.670;-63.532;2023-02-15T14:34:25;4.85;;;1.40;;
44036;SDS011;62488;-37.670;-63.532;2023-02-15T14:37:11;2.83;;;1.20;;
44036;SDS011;62488;-37.670;-63.532;2023-02-15T14:39:51;2.55;;;1.15;;
44036;SDS011;62488;-37.670;-63.532;2023-02-15T14:42:55;5.97;;;1.30;;
44036;SDS011;62488;-37.670;-63.532;2023-02-15T14:50:59;7.82;;;1.17;;
44036;SDS011;62488;-37.670;-63.532;2023-02-15T14:58:38;2.97;;;1.00;;
44036;SDS011;62488;-37.670;-63.532;2023-02-15T15:03:53;3.22;;;1.13;;
44036;SDS011;62488;-37.670;-63.532;2023-02-15T15:06:24;8.75;;;1.10;;
44036;SDS011;62488;-37.670;-63.532;2023-02-15T15:09:27;9.05;;;1.52;;
44036;SDS011;62488;-37.670;-63.532;2023-02-15T15:14:42;7.13;;;1.33;;
44036;SDS011;62488;-37.670;-63.532;2023-02-15T15:29:50;11.88;;;1.17;;
44036;SDS011;62488;-37.670;-63.532;2023-02-15T15:32:17;5.85;;;1.10;;
44036;SDS011;62488;-37.670;-63.532;2023-02-15T15:43:16;12.40;;;1.35;;
44036;SDS011;62488;-37.670;-63.532;2023-02-15T15:46:08;3.92;;;0.95;;
44036;SDS011;62488;-37.670;-63.532;2023-02-15T15:49:01;5.45;;;1.00;;
44036;SDS011;62488;-37.670;-63.532;2023-02-15T15:51:41;2.40;;;1.15;;
44036;SDS011;62488;-37.670;-63.532;2023-02-15T15:56:46;17.00;;;1.95;;
44036;SDS011;62488;-37.670;-63.532;2023-02-15T15:59:23;3.08;;;0.80;;
44036;SDS011;62488;-37.670;-63.532;2023-02-15T16:01:56;7.00;;;1.55;;
44036;SDS011;62488;-37.670;-63.532;2023-02-15T16:04:30;22.95;;;1.95;;
44036;SDS011;62488;-37.670;-63.532;2023-02-15T16:09:53;4.25;;;1.13;;
44036;SDS011;62488;-37.670;-63.532;2023-02-15T16:12:21;4.15;;;0.73;;
44036;SDS011;62488;-37.670;-63.532;2023-02-15T16:14:48;4.18;;;0.75;;
44036;SDS011;62488;-37.670;-63.532;2023-02-15T16:20:16;4.75;;;0.98;;
44036;SDS011;62488;-37.670;-63.532;2023-02-15T16:22:48;9.98;;;0.88;;
44036;SDS011;62488;-37.670;-63.532;2023-02-15T16:25:29;7.88;;;1.00;;
44036;SDS011;62488;-37.670;-63.532;2023-02-15T16:28:08;9.83;;;1.40;;
44036;SDS011;62488;-37.670;-63.532;2023-02-15T16:30:38;5.30;;;0.85;;
44036;SDS011;62488;-37.670;-63.532;2023-02-15T16:33:08;2.38;;;0.80;;
44036;SDS011;62488;-37.670;-63.532;2023-02-15T16:35:52;9.27;;;1.15;;
44036;SDS011;62488;-37.670;-63.532;2023-02-15T16:41:42;1.27;;;0.70;;
44036;SDS011;62488;-37.670;-63.532;2023-02-15T16:44:05;2.42;;;1.02;;
44036;SDS011;62488;-37.670;-63.532;2023-02-15T16:46:40;2.20;;;0.85;;
44036;SDS011;62488;-37.670;-63.532;2023-02-15T16:49:16;1.27;;;0.60;;
44036;SDS011;62488;-37.670;-63.532;2023-02-15T16:51:56;2.13;;;0.60;;
44036;SDS011;62488;-37.670;-63.532;2023-02-15T16:54:34;5.70;;;1.42;;
44036;SDS011;62488;-37.670;-63.532;2023-02-15T16:57:01;5.82;;;0.75;;
44036;SDS011;62488;-37.670;-63.532;2023-02-15T16:59:37;5.78;;;1.05;;
44036;SDS011;62488;-37.670;-63.532;2023-02-15T17:02:12;1.95;;;0.80;;
44036;SDS011;62488;-37.670;-63.532;2023-02-15T17:04:43;6.55;;;1.05;;
44036;SDS011;62488;-37.670;-63.532;2023-02-15T17:07:19;8.90;;;1.13;;
44036;SDS011;62488;-37.670;-63.532;2023-02-15T17:09:53;2.25;;;1.08;;
44036;SDS011;62488;-37.670;-63.532;2023-02-15T17:15:36;10.27;;;1.20;;
44036;SDS011;62488;-37.670;-63.532;2023-02-15T17:18:19;80.75;;;10.57;;
44036;SDS011;62488;-37.670;-63.532;2023-02-15T17:20:50;2.92;;;1.00;;
44036;SDS011;62488;-37.670;-63.532;2023-02-15T17:25:50;1.83;;;0.60;;
44036;SDS011;62488;-37.670;-63.532;2023-02-15T17:28:22;4.03;;;0.85;;
44036;SDS011;62488;-37.670;-63.532;2023-02-15T17:30:54;2.38;;;0.70;;
44036;SDS011;62488;-37.670;-63.532;2023-02-15T17:33:24;2.13;;;0.63;;
44036;SDS011;62488;-37.670;-63.532;2023-02-15T17:36:04;6.63;;;0.70;;
44036;SDS011;62488;-37.670;-63.532;2023-02-15T17:38:39;5.23;;;0.70;;
44036;SDS011;62488;-37.670;-63.532;2023-02-15T17:41:28;2.55;;;1.02;;
44036;SDS011;62488;-37.670;-63.532;2023-02-15T17:43:56;1.70;;;0.77;;
44036;SDS011;62488;-37.670;-63.532;2023-02-15T17:46:23;5.85;;;0.90;;
44036;SDS011;62488;-37.670;-63.532;2023-02-15T17:48:53;3.38;;;0.82;;
44036;SDS011;62488;-37.670;-63.532;2023-02-15T17:51:21;7.30;;;0.60;;
44036;SDS011;62488;-37.670;-63.532;2023-02-15T17:53:50;5.75;;;0.85;;
44036;SDS011;62488;-37.670;-63.532;2023-02-15T17:56:37;0.60;;;0.60;;
44036;SDS011;62488;-37.670;-63.532;2023-02-15T17:59:04;2.00;;;0.70;;
44036;SDS011;62488;-37.670;-63.532;2023-02-15T18:01:32;3.75;;;1.02;;
44036;SDS011;62488;-37.670;-63.532;2023-02-15T18:04:18;5.00;;;0.60;;
44036;SDS011;62488;-37.670;-63.532;2023-02-15T18:07:04;1.23;;;0.50;;
44036;SDS011;62488;-37.670;-63.532;2023-02-15T18:09:51;3.28;;;0.70;;
44036;SDS011;62488;-37.670;-63.532;2023-02-15T18:12:36;0.60;;;0.50;;
44036;SDS011;62488;-37.670;-63.532;2023-02-15T18:15:03;3.53;;;1.17;;
44036;SDS011;62488;-37.670;-63.532;2023-02-15T18:17:32;2.00;;;0.70;;
44036;SDS011;62488;-37.670;-63.532;2023-02-15T18:22:43;2.45;;;0.50;;
44036;SDS011;62488;-37.670;-63.532;2023-02-15T18:28:55;1.77;;;0.70;;
44036;SDS011;62488;-37.670;-63.532;2023-02-15T18:31:22;10.60;;;0.80;;
44036;SDS011;62488;-37.670;-63.532;2023-02-15T18:34:02;5.90;;;1.20;;
44036;SDS011;62488;-37.670;-63.532;2023-02-15T18:36:43;5.88;;;1.48;;
44036;SDS011;62488;-37.670;-63.532;2023-02-15T18:39:25;1.52;;;0.50;;
44036;SDS011;62488;-37.670;-63.532;2023-02-15T18:41:59;3.10;;;0.90;;
44036;SDS011;62488;-37.670;-63.532;2023-02-15T18:44:42;0.60;;;0.60;;
44036;SDS011;62488;-37.670;-63.532;2023-02-15T18:47:09;0.40;;;0.40;;
44036;SDS011;62488;-37.670;-63.532;2023-02-15T18:49:50;1.67;;;0.75;;
44036;SDS011;62488;-37.670;-63.532;2023-02-15T18:52:31;7.57;;;0.95;;
44036;SDS011;62488;-37.670;-63.532;2023-02-15T18:57:45;3.33;;;0.98;;
44036;SDS011;62488;-37.670;-63.532;2023-02-15T19:00:27;0.85;;;0.40;;